sensor_id;sensor_type;location;lat;lon;timestamp;pressure;altitude;pressure_sealevel;temperature;humidity
73016;BME280;61893;50.074;14.440;2023-01-04T00:01:24;99792.84;;;1.50;90.94
73016;BME280;61893;50.074;14.440;2023-01-04T00:03:54;99785.09;;;1.47;91.05
73016;BME280;61893;50.074;14.440;2023-01-04T00:06:36;99784.25;;;1.46;90.97
73016;BME280;61893;50.074;14.440;2023-01-04T00:09:06;99784.31;;;1.45;91.18
73016;BME280;61893;50.074;14.440;2023-01-04T00:11:43;99780.88;;;1.43;91.38
73016;BME280;61893;50.074;14.440;2023-01-04T00:14:10;99780.75;;;1.46;91.21
73016;BME280;61893;50.074;14.440;2023-01-04T00:16:53;99780.47;;;1.31;91.86
73016;BME280;61893;50.074;14.440;2023-01-04T00:19:19;99786.38;;;1.37;92.01
73016;BME280;61893;50.074;14.440;2023-01-04T00:21:44;99789.28;;;1.30;91.92
73016;BME280;61893;50.074;14.440;2023-01-04T00:24:11;99782.19;;;1.32;91.91
73016;BME280;61893;50.074;14.440;2023-01-04T00:26:39;99781.16;;;1.37;92.56
73016;BME280;61893;50.074;14.440;2023-01-04T00:29:26;99780.16;;;1.39;92.13
73016;BME280;61893;50.074;14.440;2023-01-04T00:31:54;99771.63;;;1.34;91.75
73016;BME280;61893;50.074;14.440;2023-01-04T00:34:23;99776.97;;;1.32;92.09
73016;BME280;61893;50.074;14.440;2023-01-04T00:36:56;99773.72;;;1.26;92.25
73016;BME280;61893;50.074;14.440;2023-01-04T00:39:25;99772.81;;;1.27;92.21
73016;BME280;61893;50.074;14.440;2023-01-04T00:41:52;99762.25;;;1.28;92.38
73016;BME280;61893;50.074;14.440;2023-01-04T00:44:18;99761.28;;;1.31;92.33
73016;BME280;61893;50.074;14.440;2023-01-04T00:46:50;99770.91;;;1.30;92.18
73016;BME280;61893;50.074;14.440;2023-01-04T00:49:16;99770.91;;;1.30;92.47
73016;BME280;61893;50.074;14.440;2023-01-04T00:51:41;99769.22;;;1.29;92.29
73016;BME280;61893;50.074;14.440;2023-01-04T00:54:13;99776.97;;;1.32;92.48
73016;BME280;61893;50.074;14.440;2023-01-04T00:56:39;99766.38;;;1.34;92.70
73016;BME280;61893;50.074;14.440;2023-01-04T00:59:04;99770.91;;;1.30;92.07
73016;BME280;61893;50.074;14.440;2023-01-04T01:01:32;99765.94;;;1.24;92.75
73016;BME280;61893;50.074;14.440;2023-01-04T01:04:04;99763.44;;;1.21;92.86
73016;BME280;61893;50.074;14.440;2023-01-04T01:06:34;99763.50;;;1.20;92.65
73016;BME280;61893;50.074;14.440;2023-01-04T01:09:00;99766.91;;;1.22;92.71
73016;BME280;61893;50.074;14.440;2023-01-04T01:11:27;99753.63;;;1.26;92.64
73016;BME280;61893;50.074;14.440;2023-01-04T01:13:53;99753.63;;;1.26;92.88
73016;BME280;61893;50.074;14.440;2023-01-04T01:16:23;99761.53;;;1.25;92.64
73016;BME280;61893;50.074;14.440;2023-01-04T01:18:53;99757.09;;;1.27;92.77
73016;BME280;61893;50.074;14.440;2023-01-04T01:21:23;99758.06;;;1.24;92.36
73016;BME280;61893;50.074;14.440;2023-01-04T01:23:51;99756.28;;;1.25;92.53
73016;BME280;61893;50.074;14.440;2023-01-04T01:26:19;99755.56;;;1.21;92.27
73016;BME280;61893;50.074;14.440;2023-01-04T01:28:45;99757.25;;;1.22;92.58
73016;BME280;61893;50.074;14.440;2023-01-04T01:31:34;99753.66;;;1.25;92.30
73016;BME280;61893;50.074;14.440;2023-01-04T01:34:02;99766.19;;;1.18;92.72
73016;BME280;61893;50.074;14.440;2023-01-04T01:36:28;99759.56;;;1.09;92.81
73016;BME280;61893;50.074;14.440;2023-01-04T01:38:56;99756.94;;;1.09;92.77
73016;BME280;61893;50.074;14.440;2023-01-04T01:41:24;99756.50;;;0.98;93.00
73016;BME280;61893;50.074;14.440;2023-01-04T01:46:25;99751.41;;;0.95;92.76
73016;BME280;61893;50.074;14.440;2023-01-04T01:48:56;99748.16;;;0.88;93.42
73016;BME280;61893;50.074;14.440;2023-01-04T01:51:23;99746.53;;;0.86;93.48
73016;BME280;61893;50.074;14.440;2023-01-04T01:53:55;99736.91;;;0.86;93.57
73016;BME280;61893;50.074;14.440;2023-01-04T01:56:30;99735.97;;;0.87;94.02
73016;BME280;61893;50.074;14.440;2023-01-04T01:59:14;99739.41;;;0.89;93.43
73016;BME280;61893;50.074;14.440;2023-01-04T02:01:44;99728.19;;;0.86;94.07
73016;BME280;61893;50.074;14.440;2023-01-04T02:04:16;99718.75;;;0.82;94.20
73016;BME280;61893;50.074;14.440;2023-01-04T02:06:51;99725.44;;;0.89;94.02
73016;BME280;61893;50.074;14.440;2023-01-04T02:09:20;99714.34;;;0.82;94.65
73016;BME280;61893;50.074;14.440;2023-01-04T02:11:46;99719.59;;;0.82;94.21
73016;BME280;61893;50.074;14.440;2023-01-04T02:14:13;99717.63;;;0.87;94.49
73016;BME280;61893;50.074;14.440;2023-01-04T02:41:40;99693.59;;;0.78;94.58
73016;BME280;61893;50.074;14.440;2023-01-04T02:44:17;99693.34;;;0.84;94.45
73016;BME280;61893;50.074;14.440;2023-01-04T02:47:08;99675.97;;;0.81;94.78
73016;BME280;61893;50.074;14.440;2023-01-04T02:49:34;99679.25;;;0.86;94.51
73016;BME280;61893;50.074;14.440;2023-01-04T02:52:21;99689.91;;;0.82;94.41
73016;BME280;61893;50.074;14.440;2023-01-04T02:54:49;99684.69;;;0.82;94.59
73016;BME280;61893;50.074;14.440;2023-01-04T03:06:19;99672.91;;;0.92;94.72
73016;BME280;61893;50.074;14.440;2023-01-04T03:09:14;99680.66;;;0.95;94.28
73016;BME280;61893;50.074;14.440;2023-01-04T03:11:57;99682.47;;;0.93;95.07
73016;BME280;61893;50.074;14.440;2023-01-04T03:14:51;99676.50;;;0.89;94.27
73016;BME280;61893;50.074;14.440;2023-01-04T03:17:22;99679.91;;;0.92;94.44
73016;BME280;61893;50.074;14.440;2023-01-04T03:20:07;99655.56;;;0.89;94.34
73016;BME280;61893;50.074;14.440;2023-01-04T03:22:52;99658.22;;;0.88;94.80
73016;BME280;61893;50.074;14.440;2023-01-04T03:25:40;99650.50;;;0.85;94.75
73016;BME280;61893;50.074;14.440;2023-01-04T03:28:30;99655.00;;;0.81;94.84
73016;BME280;61893;50.074;14.440;2023-01-04T03:31:23;99655.19;;;0.77;94.38
73016;BME280;61893;50.074;14.440;2023-01-04T03:34:11;99638.50;;;0.79;95.15
73016;BME280;61893;50.074;14.440;2023-01-04T03:37:03;99643.88;;;0.76;95.20
73016;BME280;61893;50.074;14.440;2023-01-04T03:39:40;99636.00;;;0.76;95.13
73016;BME280;61893;50.074;14.440;2023-01-04T03:42:50;99630.75;;;0.76;94.94
73016;BME280;61893;50.074;14.440;2023-01-04T03:45:52;99620.94;;;0.81;94.54
73016;BME280;61893;50.074;14.440;2023-01-04T03:49:13;99614.03;;;0.80;95.12
73016;BME280;61893;50.074;14.440;2023-01-04T03:51:44;99618.91;;;0.88;94.33
73016;BME280;61893;50.074;14.440;2023-01-04T03:54:21;99617.88;;;0.92;93.82
73016;BME280;61893;50.074;14.440;2023-01-04T03:56:49;99610.28;;;0.86;94.08
73016;BME280;61893;50.074;14.440;2023-01-04T03:59:15;99611.78;;;0.92;93.81
73016;BME280;61893;50.074;14.440;2023-01-04T04:01:42;99608.16;;;0.94;93.41
73016;BME280;61893;50.074;14.440;2023-01-04T04:04:09;99608.97;;;0.96;93.24
73016;BME280;61893;50.074;14.440;2023-01-04T04:06:53;99603.84;;;0.93;93.25
73016;BME280;61893;50.074;14.440;2023-01-04T04:09:37;99601.19;;;0.95;92.69
73016;BME280;61893;50.074;14.440;2023-01-04T04:12:06;99601.28;;;0.92;93.44
73016;BME280;61893;50.074;14.440;2023-01-04T04:14:34;99601.19;;;0.95;92.68
73016;BME280;61893;50.074;14.440;2023-01-04T04:17:00;99592.84;;;1.05;92.35
73016;BME280;61893;50.074;14.440;2023-01-04T04:19:26;99592.22;;;1.00;92.00
73016;BME280;61893;50.074;14.440;2023-01-04T04:21:52;99587.69;;;1.04;92.19
73016;BME280;61893;50.074;14.440;2023-01-04T04:24:28;99581.50;;;1.05;91.82
73016;BME280;61893;50.074;14.440;2023-01-04T04:26:54;99589.44;;;1.03;91.81
73016;BME280;61893;50.074;14.440;2023-01-04T04:29:21;99584.34;;;1.00;91.93
73016;BME280;61893;50.074;14.440;2023-01-04T04:31:47;99575.81;;;0.95;91.66
73016;BME280;61893;50.074;14.440;2023-01-04T04:34:13;99574.19;;;0.93;91.52
73016;BME280;61893;50.074;14.440;2023-01-04T04:36:41;99575.97;;;0.92;91.52
73016;BME280;61893;50.074;14.440;2023-01-04T04:39:07;99575.97;;;0.92;91.44
73016;BME280;61893;50.074;14.440;2023-01-04T04:41:32;99569.13;;;0.88;91.45
73016;BME280;61893;50.074;14.440;2023-01-04T04:44:17;99575.22;;;0.88;91.62
73016;BME280;61893;50.074;14.440;2023-01-04T04:46:44;99572.56;;;0.90;91.34
73016;BME280;61893;50.074;14.440;2023-01-04T04:49:10;99572.88;;;0.82;91.62
73016;BME280;61893;50.074;14.440;2023-01-04T04:51:38;99566.91;;;0.79;91.19
73016;BME280;61893;50.074;14.440;2023-01-04T04:54:06;99566.06;;;0.78;91.35
73016;BME280;61893;50.074;14.440;2023-01-04T04:56:31;99560.16;;;0.73;91.60
73016;BME280;61893;50.074;14.440;2023-01-04T04:59:00;99558.47;;;0.72;91.57
73016;BME280;61893;50.074;14.440;2023-01-04T05:01:26;99559.50;;;0.68;91.56
73016;BME280;61893;50.074;14.440;2023-01-04T05:03:52;99556.13;;;0.66;92.25
73016;BME280;61893;50.074;14.440;2023-01-04T05:06:17;99551.59;;;0.70;91.93
73016;BME280;61893;50.074;14.440;2023-01-04T05:08:43;99554.13;;;0.71;91.91
73016;BME280;61893;50.074;14.440;2023-01-04T05:11:11;99560.16;;;0.73;91.58
73016;BME280;61893;50.074;14.440;2023-01-04T05:14:12;99543.66;;;0.71;91.78
73016;BME280;61893;50.074;14.440;2023-01-04T05:16:37;99540.66;;;0.80;91.42
73016;BME280;61893;50.074;14.440;2023-01-04T05:19:03;99544.97;;;0.81;90.61
73016;BME280;61893;50.074;14.440;2023-01-04T05:21:29;99542.94;;;0.88;90.61
73016;BME280;61893;50.074;14.440;2023-01-04T05:23:55;99540.13;;;0.93;90.37
73016;BME280;61893;50.074;14.440;2023-01-04T05:26:20;99542.75;;;0.93;90.12
73016;BME280;61893;50.074;14.440;2023-01-04T05:28:46;99542.47;;;0.99;90.62
73016;BME280;61893;50.074;14.440;2023-01-04T05:31:12;99540.91;;;0.95;90.43
73016;BME280;61893;50.074;14.440;2023-01-04T05:33:39;99539.31;;;0.90;90.06
73016;BME280;61893;50.074;14.440;2023-01-04T05:36:04;99533.06;;;0.95;90.00
73016;BME280;61893;50.074;14.440;2023-01-04T05:38:43;99518.09;;;0.97;89.99
73016;BME280;61893;50.074;14.440;2023-01-04T05:41:09;99513.97;;;0.91;90.34
73016;BME280;61893;50.074;14.440;2023-01-04T05:43:56;99513.91;;;0.93;90.03
73016;BME280;61893;50.074;14.440;2023-01-04T05:46:25;99501.38;;;0.99;89.38
73016;BME280;61893;50.074;14.440;2023-01-04T05:48:51;99505.00;;;0.97;90.49
73016;BME280;61893;50.074;14.440;2023-01-04T05:51:16;99503.03;;;1.02;90.07
73016;BME280;61893;50.074;14.440;2023-01-04T05:53:45;99512.38;;;1.07;89.28
73016;BME280;61893;50.074;14.440;2023-01-04T05:56:11;99501.25;;;1.02;89.21
73016;BME280;61893;50.074;14.440;2023-01-04T05:58:37;99497.34;;;1.11;89.22
73016;BME280;61893;50.074;14.440;2023-01-04T06:01:05;99498.81;;;1.18;88.42
73016;BME280;61893;50.074;14.440;2023-01-04T06:03:32;99501.28;;;1.21;88.14
73016;BME280;61893;50.074;14.440;2023-01-04T06:05:58;99504.47;;;1.28;87.83
73016;BME280;61893;50.074;14.440;2023-01-04T06:08:23;99498.22;;;1.30;87.96
73016;BME280;61893;50.074;14.440;2023-01-04T06:10:53;99494.56;;;1.34;87.16
73016;BME280;61893;50.074;14.440;2023-01-04T06:13:19;99485.06;;;1.32;87.44
73016;BME280;61893;50.074;14.440;2023-01-04T06:15:44;99489.31;;;1.34;87.18
73016;BME280;61893;50.074;14.440;2023-01-04T06:18:10;99492.22;;;1.47;86.85
73016;BME280;61893;50.074;14.440;2023-01-04T06:20:36;99497.41;;;1.49;85.95
73016;BME280;61893;50.074;14.440;2023-01-04T06:23:02;99510.63;;;1.46;86.73
73016;BME280;61893;50.074;14.440;2023-01-04T06:25:28;99494.19;;;1.42;86.24
73016;BME280;61893;50.074;14.440;2023-01-04T06:27:54;99489.94;;;1.40;86.57
73016;BME280;61893;50.074;14.440;2023-01-04T06:30:20;99490.03;;;1.38;86.48
73016;BME280;61893;50.074;14.440;2023-01-04T06:33:04;99486.56;;;1.38;86.43
73016;BME280;61893;50.074;14.440;2023-01-04T06:35:34;99483.19;;;1.34;86.97
73016;BME280;61893;50.074;14.440;2023-01-04T06:38:03;99469.03;;;1.38;86.11
73016;BME280;61893;50.074;14.440;2023-01-04T06:40:28;99467.41;;;1.35;86.18
73016;BME280;61893;50.074;14.440;2023-01-04T06:42:55;99462.72;;;1.42;86.47
73016;BME280;61893;50.074;14.440;2023-01-04T06:45:20;99458.31;;;1.43;85.93
73016;BME280;61893;50.074;14.440;2023-01-04T06:47:49;99466.03;;;1.46;85.90
73016;BME280;61893;50.074;14.440;2023-01-04T06:50:18;99463.06;;;1.53;85.48
73016;BME280;61893;50.074;14.440;2023-01-04T06:53:08;99459.09;;;1.45;85.99
73016;BME280;61893;50.074;14.440;2023-01-04T06:55:45;99454.66;;;1.47;86.20
73016;BME280;61893;50.074;14.440;2023-01-04T06:58:11;99458.81;;;1.51;85.68
73016;BME280;61893;50.074;14.440;2023-01-04T07:00:37;99456.34;;;1.48;85.85
73016;BME280;61893;50.074;14.440;2023-01-04T07:03:18;99456.13;;;1.52;85.45
73016;BME280;61893;50.074;14.440;2023-01-04T07:05:50;99451.31;;;1.43;85.90
73016;BME280;61893;50.074;14.440;2023-01-04T07:08:38;99448.56;;;1.46;85.75
73016;BME280;61893;50.074;14.440;2023-01-04T07:11:08;99461.53;;;1.49;85.22
73016;BME280;61893;50.074;14.440;2023-01-04T07:13:48;99465.63;;;1.55;85.57
73016;BME280;61893;50.074;14.440;2023-01-04T07:16:26;99472.41;;;1.59;84.91
73016;BME280;61893;50.074;14.440;2023-01-04T07:19:01;99460.09;;;1.61;84.62
73016;BME280;61893;50.074;14.440;2023-01-04T07:23:04;99448.78;;;1.78;84.18
73016;BME280;61893;50.074;14.440;2023-01-04T07:26:17;99448.47;;;1.84;84.21
73016;BME280;61893;50.074;14.440;2023-01-04T07:29:05;99446.19;;;1.95;83.20
73016;BME280;61893;50.074;14.440;2023-01-04T07:32:28;99435.91;;;2.08;82.54
73016;BME280;61893;50.074;14.440;2023-01-04T07:34:56;99431.44;;;2.10;82.73
73016;BME280;61893;50.074;14.440;2023-01-04T07:37:54;99425.03;;;2.16;82.16
73016;BME280;61893;50.074;14.440;2023-01-04T07:40:35;99421.72;;;2.12;82.63
73016;BME280;61893;50.074;14.440;2023-01-04T07:43:45;99419.41;;;2.23;82.60
73016;BME280;61893;50.074;14.440;2023-01-04T07:47:03;99414.13;;;2.41;82.19
73016;BME280;61893;50.074;14.440;2023-01-04T08:01:16;99403.59;;;2.58;81.10
73016;BME280;61893;50.074;14.440;2023-01-04T08:03:45;99402.16;;;2.68;81.12
73016;BME280;61893;50.074;14.440;2023-01-04T08:06:14;99400.81;;;2.77;80.44
73016;BME280;61893;50.074;14.440;2023-01-04T08:09:17;99399.63;;;2.83;80.09
73016;BME280;61893;50.074;14.440;2023-01-04T08:12:35;99382.44;;;2.93;79.26
73016;BME280;61893;50.074;14.440;2023-01-04T08:16:23;99390.41;;;2.91;79.42
73016;BME280;61893;50.074;14.440;2023-01-04T08:20:23;99383.88;;;3.14;79.26
73016;BME280;61893;50.074;14.440;2023-01-04T08:24:18;99384.75;;;3.31;78.64
73016;BME280;61893;50.074;14.440;2023-01-04T08:28:23;99370.50;;;2.87;79.43
73016;BME280;61893;50.074;14.440;2023-01-04T08:31:48;99365.41;;;3.00;79.35
73016;BME280;61893;50.074;14.440;2023-01-04T08:34:53;99364.28;;;3.20;78.71
73016;BME280;61893;50.074;14.440;2023-01-04T08:38:43;99346.44;;;3.57;77.78
73016;BME280;61893;50.074;14.440;2023-01-04T08:42:43;99332.59;;;4.42;74.37
73016;BME280;61893;50.074;14.440;2023-01-04T08:45:41;99331.81;;;4.26;74.03
73016;BME280;61893;50.074;14.440;2023-01-04T08:48:55;99324.03;;;3.80;76.23
73016;BME280;61893;50.074;14.440;2023-01-04T08:52:12;99328.97;;;3.56;77.18
73016;BME280;61893;50.074;14.440;2023-01-04T08:55:30;99323.53;;;3.43;78.16
73016;BME280;61893;50.074;14.440;2023-01-04T08:58:36;99327.53;;;3.34;78.08
73016;BME280;61893;50.074;14.440;2023-01-04T09:01:50;99329.69;;;3.28;78.59
73016;BME280;61893;50.074;14.440;2023-01-04T09:05:20;99327.59;;;3.49;78.65
73016;BME280;61893;50.074;14.440;2023-01-04T09:08:47;99322.63;;;4.62;77.44
73016;BME280;61893;50.074;14.440;2023-01-04T09:11:57;99315.09;;;4.97;73.08
73016;BME280;61893;50.074;14.440;2023-01-04T09:14:47;99307.06;;;5.80;70.03
73016;BME280;61893;50.074;14.440;2023-01-04T09:17:49;99290.94;;;5.97;67.85
73016;BME280;61893;50.074;14.440;2023-01-04T09:20:18;99297.28;;;6.20;67.12
73016;BME280;61893;50.074;14.440;2023-01-04T09:22:48;99302.16;;;6.39;66.87
73016;BME280;61893;50.074;14.440;2023-01-04T09:26:08;99288.28;;;5.97;67.04
73016;BME280;61893;50.074;14.440;2023-01-04T09:29:17;99307.88;;;5.28;70.05
73016;BME280;61893;50.074;14.440;2023-01-04T09:32:24;99298.22;;;4.72;71.79
73016;BME280;61893;50.074;14.440;2023-01-04T09:35:52;99296.97;;;4.92;72.28
73016;BME280;61893;50.074;14.440;2023-01-04T09:39:21;99296.91;;;4.65;72.65
73016;BME280;61893;50.074;14.440;2023-01-04T09:43:32;99294.00;;;4.70;73.15
73016;BME280;61893;50.074;14.440;2023-01-04T09:46:52;99282.13;;;4.63;73.46
73016;BME280;61893;50.074;14.440;2023-01-04T09:54:52;99265.88;;;4.42;74.76
73016;BME280;61893;50.074;14.440;2023-01-04T09:57:27;99254.69;;;4.38;75.88
73016;BME280;61893;50.074;14.440;2023-01-04T10:00:35;99249.47;;;4.51;75.20
73016;BME280;61893;50.074;14.440;2023-01-04T10:03:32;99241.78;;;4.48;75.06
73016;BME280;61893;50.074;14.440;2023-01-04T10:06:12;99239.25;;;4.46;75.06
73016;BME280;61893;50.074;14.440;2023-01-04T10:09:11;99237.16;;;4.51;75.00
73016;BME280;61893;50.074;14.440;2023-01-04T10:15:57;99224.81;;;4.93;74.49
73016;BME280;61893;50.074;14.440;2023-01-04T10:22:18;99210.72;;;4.80;74.39
73016;BME280;61893;50.074;14.440;2023-01-04T10:25:19;99213.75;;;4.74;74.46
73016;BME280;61893;50.074;14.440;2023-01-04T10:28:09;99207.16;;;4.81;75.03
73016;BME280;61893;50.074;14.440;2023-01-04T10:38:26;99186.94;;;4.94;76.10
73016;BME280;61893;50.074;14.440;2023-01-04T10:41:18;99176.22;;;4.70;74.68
73016;BME280;61893;50.074;14.440;2023-01-04T10:44:17;99161.28;;;4.84;75.50
73016;BME280;61893;50.074;14.440;2023-01-04T10:50:53;99145.53;;;4.69;75.54
73016;BME280;61893;50.074;14.440;2023-01-04T10:54:15;99141.88;;;4.58;76.65
73016;BME280;61893;50.074;14.440;2023-01-04T11:05:21;99109.19;;;5.00;75.58
73016;BME280;61893;50.074;14.440;2023-01-04T11:08:54;99116.69;;;5.06;74.87
73016;BME280;61893;50.074;14.440;2023-01-04T11:16:42;99095.94;;;5.27;75.49
73016;BME280;61893;50.074;14.440;2023-01-04T11:20:52;99087.31;;;5.38;74.74
73016;BME280;61893;50.074;14.440;2023-01-04T11:24:03;99079.47;;;5.36;75.45
73016;BME280;61893;50.074;14.440;2023-01-04T11:27:33;99074.06;;;5.63;74.72
73016;BME280;61893;50.074;14.440;2023-01-04T11:34:10;99032.56;;;5.65;74.31
73016;BME280;61893;50.074;14.440;2023-01-04T11:37:51;99039.41;;;5.68;73.91
73016;BME280;61893;50.074;14.440;2023-01-04T11:41:39;99033.31;;;5.68;74.91
73016;BME280;61893;50.074;14.440;2023-01-04T11:44:58;99026.69;;;5.86;73.95
73016;BME280;61893;50.074;14.440;2023-01-04T11:47:24;99025.25;;;8.34;96.43
73016;BME280;61893;50.074;14.440;2023-01-04T11:49:53;99013.34;;;9.23;86.63
73016;BME280;61893;50.074;14.440;2023-01-04T11:52:53;99013.03;;;7.33;68.42
73016;BME280;61893;50.074;14.440;2023-01-04T11:55:53;99005.50;;;6.71;70.92
73016;BME280;61893;50.074;14.440;2023-01-04T11:59:12;99009.63;;;6.51;70.89
73016;BME280;61893;50.074;14.440;2023-01-04T12:14:21;98946.63;;;6.34;70.95
73016;BME280;61893;50.074;14.440;2023-01-04T12:25:51;98942.97;;;6.59;70.05
73016;BME280;61893;50.074;14.440;2023-01-04T12:33:52;98927.81;;;6.61;69.89
73016;BME280;61893;50.074;14.440;2023-01-04T12:39:55;98913.78;;;6.94;69.16
73016;BME280;61893;50.074;14.440;2023-01-04T12:45:47;98901.63;;;7.14;67.96
73016;BME280;61893;50.074;14.440;2023-01-04T12:48:42;98888.50;;;7.12;68.19
73016;BME280;61893;50.074;14.440;2023-01-04T12:54:55;98894.53;;;7.14;68.52
73016;BME280;61893;50.074;14.440;2023-01-04T13:02:14;98926.53;;;7.22;68.41
73016;BME280;61893;50.074;14.440;2023-01-04T13:04:41;98935.91;;;7.27;68.60
73016;BME280;61893;50.074;14.440;2023-01-04T13:07:18;98933.63;;;7.33;68.61
73016;BME280;61893;50.074;14.440;2023-01-04T13:09:53;98937.00;;;7.24;69.28
73016;BME280;61893;50.074;14.440;2023-01-04T13:19:25;98919.19;;;7.26;70.06
73016;BME280;61893;50.074;14.440;2023-01-04T13:22:52;98900.56;;;7.16;70.92
73016;BME280;61893;50.074;14.440;2023-01-04T13:29:32;98888.59;;;7.44;70.31
73016;BME280;61893;50.074;14.440;2023-01-04T13:32:24;98890.31;;;7.23;71.48
73016;BME280;61893;50.074;14.440;2023-01-04T13:35:13;98874.09;;;7.16;71.64
73016;BME280;61893;50.074;14.440;2023-01-04T13:37:56;98842.59;;;7.13;72.37
73016;BME280;61893;50.074;14.440;2023-01-04T13:40:55;98836.66;;;7.21;72.30
73016;BME280;61893;50.074;14.440;2023-01-04T13:52:28;98819.44;;;7.27;73.50
73016;BME280;61893;50.074;14.440;2023-01-04T14:00:12;98843.16;;;7.28;75.08
73016;BME280;61893;50.074;14.440;2023-01-04T14:03:30;98828.09;;;7.29;74.97
73016;BME280;61893;50.074;14.440;2023-01-04T14:06:46;98840.16;;;7.21;75.52
73016;BME280;61893;50.074;14.440;2023-01-04T14:09:58;98838.94;;;7.26;76.12
73016;BME280;61893;50.074;14.440;2023-01-04T14:12:27;98831.75;;;7.16;76.89
73016;BME280;61893;50.074;14.440;2023-01-04T14:17:51;98821.00;;;7.29;76.69
73016;BME280;61893;50.074;14.440;2023-01-04T14:20:34;98831.16;;;7.24;76.99
73016;BME280;61893;50.074;14.440;2023-01-04T14:23:27;98823.53;;;7.31;76.76
73016;BME280;61893;50.074;14.440;2023-01-04T14:26:45;98838.09;;;7.25;77.06
73016;BME280;61893;50.074;14.440;2023-01-04T14:30:36;98817.78;;;7.26;77.38
73016;BME280;61893;50.074;14.440;2023-01-04T14:33:41;98811.97;;;7.32;77.69
73016;BME280;61893;50.074;14.440;2023-01-04T14:39:31;98813.19;;;7.28;77.71
73016;BME280;61893;50.074;14.440;2023-01-04T14:42:29;98808.50;;;7.31;78.11
73016;BME280;61893;50.074;14.440;2023-01-04T14:45:13;98806.19;;;7.38;77.82
73016;BME280;61893;50.074;14.440;2023-01-04T14:47:45;98805.00;;;7.31;78.39
73016;BME280;61893;50.074;14.440;2023-01-04T14:52:16;98777.66;;;7.41;77.91
73016;BME280;61893;50.074;14.440;2023-01-04T14:55:03;98791.34;;;7.47;77.74
73016;BME280;61893;50.074;14.440;2023-01-04T14:57:33;98796.28;;;7.51;77.93
73016;BME280;61893;50.074;14.440;2023-01-04T15:00:14;98786.31;;;7.43;78.11
73016;BME280;61893;50.074;14.440;2023-01-04T15:02:41;98787.38;;;7.41;78.25
73016;BME280;61893;50.074;14.440;2023-01-04T15:05:10;98788.38;;;7.40;78.67
73016;BME280;61893;50.074;14.440;2023-01-04T15:07:38;98785.78;;;7.50;78.56
73016;BME280;61893;50.074;14.440;2023-01-04T15:11:23;98752.50;;;7.47;78.83
73016;BME280;61893;50.074;14.440;2023-01-04T15:14:42;98751.53;;;7.48;78.86
73016;BME280;61893;50.074;14.440;2023-01-04T15:17:37;98751.63;;;7.47;79.16
73016;BME280;61893;50.074;14.440;2023-01-04T15:20:27;98751.22;;;7.62;79.03
73016;BME280;61893;50.074;14.440;2023-01-04T15:23:13;98756.03;;;7.57;78.78
73016;BME280;61893;50.074;14.440;2023-01-04T15:25:56;98757.47;;;7.61;79.10
73016;BME280;61893;50.074;14.440;2023-01-04T15:28:40;98751.94;;;7.64;79.08
73016;BME280;61893;50.074;14.440;2023-01-04T15:32:13;98755.66;;;7.62;79.13
73016;BME280;61893;50.074;14.440;2023-01-04T15:35:07;98748.75;;;7.71;78.92
73016;BME280;61893;50.074;14.440;2023-01-04T15:37:36;98752.13;;;7.73;79.03
73016;BME280;61893;50.074;14.440;2023-01-04T15:40:03;98759.34;;;7.71;78.89
73016;BME280;61893;50.074;14.440;2023-01-04T15:42:32;98757.66;;;7.70;79.18
73016;BME280;61893;50.074;14.440;2023-01-04T15:45:19;98741.53;;;7.73;79.14
73016;BME280;61893;50.074;14.440;2023-01-04T15:47:50;98739.31;;;7.78;79.30
73016;BME280;61893;50.074;14.440;2023-01-04T15:50:16;98726.13;;;7.66;79.36
73016;BME280;61893;50.074;14.440;2023-01-04T15:52:45;98724.66;;;7.74;79.28
73016;BME280;61893;50.074;14.440;2023-01-04T15:55:17;98723.81;;;7.73;79.36
73016;BME280;61893;50.074;14.440;2023-01-04T15:57:46;98710.97;;;7.68;79.41
73016;BME280;61893;50.074;14.440;2023-01-04T16:00:15;98704.47;;;7.73;79.52
73016;BME280;61893;50.074;14.440;2023-01-04T16:03:08;98707.09;;;7.73;79.52
73016;BME280;61893;50.074;14.440;2023-01-04T16:06:33;98695.13;;;7.78;79.23
73016;BME280;61893;50.074;14.440;2023-01-04T16:09:06;98696.09;;;7.77;79.50
73016;BME280;61893;50.074;14.440;2023-01-04T16:11:33;98690.41;;;7.82;79.41
73016;BME280;61893;50.074;14.440;2023-01-04T16:14:37;98682.28;;;7.74;79.91
73016;BME280;61893;50.074;14.440;2023-01-04T16:21:11;98672.97;;;7.79;79.70
73016;BME280;61893;50.074;14.440;2023-01-04T16:23:42;98653.44;;;7.80;79.68
73016;BME280;61893;50.074;14.440;2023-01-04T16:26:42;98641.19;;;7.79;79.96
73016;BME280;61893;50.074;14.440;2023-01-04T16:29:58;98617.47;;;7.78;80.03
73016;BME280;61893;50.074;14.440;2023-01-04T16:32:46;98633.97;;;7.81;80.21
73016;BME280;61893;50.074;14.440;2023-01-04T16:35:36;98631.03;;;7.84;80.04
73016;BME280;61893;50.074;14.440;2023-01-04T16:38:05;98626.31;;;7.88;79.84
73016;BME280;61893;50.074;14.440;2023-01-04T16:40:35;98618.47;;;7.86;80.05
73016;BME280;61893;50.074;14.440;2023-01-04T16:43:23;98616.16;;;7.93;79.54
73016;BME280;61893;50.074;14.440;2023-01-04T16:48:42;98628.88;;;7.99;80.97
73016;BME280;61893;50.074;14.440;2023-01-04T16:51:24;98630.34;;;7.92;82.08
73016;BME280;61893;50.074;14.440;2023-01-04T16:53:50;98632.31;;;7.90;83.10
73016;BME280;61893;50.074;14.440;2023-01-04T16:57:13;98636.75;;;7.89;83.60
73016;BME280;61893;50.074;14.440;2023-01-04T17:00:25;98632.44;;;7.88;83.61
73016;BME280;61893;50.074;14.440;2023-01-04T17:03:05;98636.91;;;7.88;83.52
73016;BME280;61893;50.074;14.440;2023-01-04T17:06:27;98616.38;;;7.80;83.62
73016;BME280;61893;50.074;14.440;2023-01-04T17:09:16;98600.53;;;7.90;83.58
73016;BME280;61893;50.074;14.440;2023-01-04T17:11:45;98602.38;;;7.99;83.02
73016;BME280;61893;50.074;14.440;2023-01-04T17:14:23;98605.38;;;7.85;83.68
73016;BME280;61893;50.074;14.440;2023-01-04T17:17:11;98601.38;;;8.00;82.30
73016;BME280;61893;50.074;14.440;2023-01-04T17:19:45;98595.53;;;7.97;82.71
73016;BME280;61893;50.074;14.440;2023-01-04T17:22:14;98582.72;;;8.02;82.29